Arletta, Washington
Current Conditions -  °F | °C
As of 10:53 AM on Monday 20 Oct 2014 (Local Time) from KTIW Reporting Station
Broken Clouds Broken Clouds  
Wind Chill: 58°   Ceiling: 9000
Heat Index: 58°   Visibility: 10mi
Dew Point: 55°   Wind: 5mph
Humidity: 90%   Direction: 180°S
Pressure: 29.76"   Gusts: NA
Location:  47.2986°N, 122.616°W
Report Text: KTIW 201753Z 18004KT 10SM SCT010 SCT050 BKN090 14/13 A2976 RMK AO2 SLP076 60006 T01440128 10150 20133 51010
Loading
Personal Weather Stations






























Interactive Weather Map New forecast layout! Learn more

10-Day Weather Forecast

Advertisements
Track Severe Weather on mobile